^^
Station Historical Data
Daily Summary for August 3, 2021 Units:  English    Metric   Both
Daily Weekly Monthly Yearly
  High: Low: Average:
Temperature: 77.4 °F 63.9 °F 70.2 °F
Dew Point: 65 °F 56 °F 60.7 °F
Humidity: 83% 58% 72%
Wind Speed: 6mph 0mph 1.8mph
Wind Gust: 13mph - -
Wind- - SW
Pressure: 30.06 in 29.98 in -
Precipitation: 0.00 in    
 
 
Tabular Data for August 3, 2021
Time Temperature Dew Point Pressure Wind Wind Speed Wind Gust Humidity Rainfall Rate (Hourly) solar
00:00 70.4 °F 58.5 °F 30.04 in SW 3 mph 3 mph 66% 0.00 in 0 W/m2
00:05 70.3 °F 58.4 °F 30.04 in SW 2 mph 3 mph 66% 0.00 in 0 W/m2
00:15 70.3 °F 58.4 °F 30.04 in WNW 3 mph 3 mph 66% 0.00 in 0 W/m2
00:20 70.2 °F 58.7 °F 30.04 in WSW 2 mph 3 mph 67% 0.00 in 0 W/m2
00:25 70.2 °F 58.7 °F 30.04 in West 2 mph 2 mph 67% 0.00 in 0 W/m2
00:30 70.1 °F 59 °F 30.04 in WSW 3 mph 3 mph 68% 0.00 in 0 W/m2
00:35 70.1 °F 59 °F 30.05 in NW 3 mph 3 mph 68% 0.00 in 0 W/m2
00:45 70.1 °F 59.9 °F 30.05 in SW 2 mph 2 mph 70% 0.00 in 0 W/m2
00:50 70 °F 59.8 °F 30.05 in WNW 2 mph 2 mph 70% 0.00 in 0 W/m2
00:55 70 °F 60.2 °F 30.05 in NNW 2 mph 4 mph 71% 0.00 in 0 W/m2
01:00 69.9 °F 60.1 °F 30.05 in WSW 2 mph 2 mph 71% 0.00 in 0 W/m2
01:05 69.8 °F 59.6 °F 30.05 in NW 2 mph 2 mph 70% 0.00 in 0 W/m2
01:10 69.7 °F 59.9 °F 30.05 in WSW 2 mph 2 mph 71% 0.00 in 0 W/m2
01:16 69.6 °F 59.8 °F 30.05 in NE 2 mph 2 mph 71% 0.00 in 0 W/m2
01:20 69.5 °F 59.7 °F 30.05 in WSW 2 mph 2 mph 71% 0.00 in 0 W/m2
01:25 69.5 °F 59.7 °F 30.04 in North 2 mph 2 mph 71% 0.00 in 0 W/m2
01:35 69.2 °F 59.4 °F 30.04 in NNE 2 mph 2 mph 71% 0.00 in 0 W/m2
01:40 69.1 °F 59.3 °F 30.04 in West 2 mph 2 mph 71% 0.00 in 0 W/m2
01:45 69 °F 59.2 °F 30.04 in NNW 2 mph 2 mph 71% 0.00 in 0 W/m2
01:50 68.8 °F 59 °F 30.04 in NNW 2 mph 3 mph 71% 0.00 in 0 W/m2
01:55 68.8 °F 59 °F 30.04 in NW 2 mph 2 mph 71% 0.00 in 0 W/m2
02:05 68.5 °F 58.7 °F 30.04 in NW 2 mph 2 mph 71% 0.00 in 0 W/m2
02:10 68.4 °F 58.6 °F 30.04 in NNW 2 mph 2 mph 71% 0.00 in 0 W/m2
02:15 68.3 °F 58.5 °F 30.04 in West 1 mph 1 mph 71% 0.00 in 0 W/m2
02:20 68.1 °F 58.3 °F 30.04 in North 1 mph 1 mph 71% 0.00 in 0 W/m2
02:25 68.1 °F 58.3 °F 30.04 in NW 1 mph 1 mph 71% 0.00 in 0 W/m2
02:35 67.8 °F 58.1 °F 30.04 in NW 1 mph 3 mph 71% 0.00 in 0 W/m2
02:40 67.7 °F 58 °F 30.04 in NW 2 mph 3 mph 71% 0.00 in 0 W/m2
02:45 67.6 °F 57.9 °F 30.04 in NW 2 mph 2 mph 71% 0.00 in 0 W/m2
02:50 67.4 °F 57.7 °F 30.04 in NW 1 mph 2 mph 71% 0.00 in 0 W/m2
02:55 67.3 °F 58 °F 30.04 in NNW 1 mph 2 mph 72% 0.00 in 0 W/m2
03:00 67.2 °F 57.9 °F 30.04 in NNW 1 mph 1 mph 72% 0.00 in 0 W/m2
03:05 67 °F 57.7 °F 30.04 in NW 1 mph 1 mph 72% 0.00 in 0 W/m2
03:10 66.9 °F 58 °F 30.04 in NNW 1 mph 1 mph 73% 0.00 in 0 W/m2
03:15 66.8 °F 57.9 °F 30.04 in NW 1 mph 1 mph 73% 0.00 in 0 W/m2
03:20 66.6 °F 57.7 °F 30.04 in NNW 1 mph 1 mph 73% 0.00 in 0 W/m2
03:25 66.5 °F 57.6 °F 30.04 in NNW 1 mph 1 mph 73% 0.00 in 0 W/m2
03:35 66.2 °F 57.7 °F 30.04 in NNW 1 mph 1 mph 74% 0.00 in 0 W/m2
03:40 66.1 °F 57.9 °F 30.04 in NW 1 mph 1 mph 75% 0.00 in 0 W/m2
03:45 66.1 °F 57.9 °F 30.03 in NE 1 mph 1 mph 75% 0.00 in 0 W/m2
03:50 65.9 °F 58.1 °F 30.04 in NNW 1 mph 2 mph 76% 0.00 in 0 W/m2
03:55 65.8 °F 58 °F 30.04 in NNW 2 mph 2 mph 76% 0.00 in 0 W/m2
04:05 65.7 °F 58.3 °F 30.03 in WNW 2 mph 2 mph 77% 0.00 in 0 W/m2
04:10 65.7 °F 58.7 °F 30.03 in WNW 2 mph 2 mph 78% 0.00 in 0 W/m2
04:15 65.7 °F 58.7 °F 30.03 in NNW 2 mph 3 mph 78% 0.00 in 0 W/m2
04:20 65.7 °F 58.7 °F 30.04 in WNW 2 mph 3 mph 78% 0.00 in 0 W/m2
04:25 65.6 °F 58.2 °F 30.04 in NW 1 mph 2 mph 77% 0.00 in 0 W/m2
04:35 65.5 °F 57.7 °F 30.03 in West 1 mph 1 mph 76% 0.00 in 0 W/m2
04:40 65.3 °F 57.5 °F 30.03 in Calm   1 mph 76% 0.00 in 0 W/m2
04:45 65.2 °F 57.1 °F 30.03 in Calm     75% 0.00 in 0 W/m2
04:50 65.1 °F 57 °F 30.03 in Calm     75% 0.00 in 0 W/m2
04:55 64.9 °F 56.8 °F 30.03 in Calm     75% 0.00 in 0 W/m2
05:05 64.7 °F 56.2 °F 30.03 in Calm     74% 0.00 in 0 W/m2
05:10 64.6 °F 56.1 °F 30.03 in Calm     74% 0.00 in 0 W/m2
05:15 64.5 °F 56 °F 30.03 in Calm   1 mph 74% 0.00 in 0 W/m2
05:25 64.5 °F 56.4 °F 30.03 in NNW 1 mph 1 mph 75% 0.00 in 0 W/m2
05:30 64.5 °F 56.8 °F 30.03 in NW 1 mph 1 mph 76% 0.00 in 0 W/m2
05:35 64.5 °F 56.8 °F 30.03 in NNW 1 mph 1 mph 76% 0.00 in 0 W/m2
05:40 64.5 °F 56.8 °F 30.04 in NW 1 mph 1 mph 76% 0.00 in 0 W/m2
05:45 64.4 °F 56.7 °F 30.04 in NW 1 mph 2 mph 76% 0.00 in 0 W/m2
05:55 64.4 °F 57 °F 30.04 in WNW 1 mph 1 mph 77% 0.00 in 0 W/m2
06:00 64.4 °F 57 °F 30.04 in NW 1 mph 1 mph 77% 0.00 in 0 W/m2
06:05 64.3 °F 56.9 °F 30.03 in NW 1 mph 1 mph 77% 0.00 in 0 W/m2
06:10 64.3 °F 56.9 °F 30.03 in WNW 1 mph 1 mph 77% 0.00 in 0 W/m2
06:15 64.3 °F 57.3 °F 30.04 in West 1 mph 1 mph 78% 0.00 in 0 W/m2
06:25 64.2 °F 56.8 °F 30.04 in Calm     77% 0.00 in 5 W/m2
06:30 64.2 °F 57.2 °F 30.04 in Calm     78% 0.00 in 7 W/m2
06:35 64.1 °F 57.1 °F 30.04 in Calm   1 mph 78% 0.00 in 9 W/m2
06:40 64 °F 57 °F 30.04 in Calm   1 mph 78% 0.00 in 12 W/m2
06:45 64 °F 57 °F 30.04 in NW 1 mph 1 mph 78% 0.00 in 14 W/m2
06:50 64 °F 56.6 °F 30.04 in WNW 1 mph 1 mph 77% 0.00 in 16 W/m2
06:55 64 °F 56.6 °F 30.04 in WNW 1 mph 1 mph 77% 0.00 in 19 W/m2
07:00 64 °F 57 °F 30.04 in WNW 1 mph 1 mph 78% 0.00 in 23 W/m2
07:05 63.9 °F 56.9 °F 30.04 in NNW 1 mph 1 mph 78% 0.00 in 25 W/m2
07:10 63.9 °F 56.9 °F 30.04 in North 1 mph 1 mph 78% 0.00 in 26 W/m2
07:15 63.9 °F 56.9 °F 30.05 in NE 1 mph 1 mph 78% 0.00 in 28 W/m2
07:20 63.9 °F 56.9 °F 30.05 in NE 1 mph 1 mph 78% 0.00 in 30 W/m2
07:25 63.9 °F 57.3 °F 30.05 in NW 1 mph 2 mph 79% 0.00 in 32 W/m2
07:30 64 °F 57.4 °F 30.05 in NNW 1 mph 1 mph 79% 0.00 in 33 W/m2
07:35 64.1 °F 57.5 °F 30.05 in WSW 1 mph 1 mph 79% 0.00 in 35 W/m2
07:40 64.1 °F 57.8 °F 30.05 in SW 1 mph 1 mph 80% 0.00 in 35 W/m2
07:45 64.2 °F 57.9 °F 30.05 in North 1 mph 1 mph 80% 0.00 in 37 W/m2
07:50 64.3 °F 58 °F 30.04 in WSW 1 mph 2 mph 80% 0.00 in 37 W/m2
07:55 64.4 °F 58.1 °F 30.04 in West 1 mph 2 mph 80% 0.00 in 39 W/m2
08:00 64.5 °F 58.2 °F 30.05 in WSW 1 mph 1 mph 80% 0.00 in 42 W/m2
08:05 64.7 °F 58 °F 30.05 in WSW 2 mph 2 mph 79% 0.00 in 40 W/m2
08:10 64.9 °F 58.2 °F 30.05 in West 2 mph 3 mph 79% 0.00 in 40 W/m2
08:15 65.1 °F 58.8 °F 30.05 in West 2 mph 4 mph 80% 0.00 in 54 W/m2
08:20 65.3 °F 59 °F 30.05 in West 2 mph 2 mph 80% 0.00 in 146 W/m2
08:25 65.5 °F 58.8 °F 30.05 in NW 2 mph 2 mph 79% 0.00 in 257 W/m2
08:30 65.8 °F 59.1 °F 30.05 in SW 2 mph 2 mph 79% 0.00 in 271 W/m2
08:35 65.9 °F 58.8 °F 30.05 in WSW 2 mph 4 mph 78% 0.00 in 287 W/m2
08:40 66.1 °F 59 °F 30.05 in West 2 mph 2 mph 78% 0.00 in 301 W/m2
08:45 66.4 °F 59 °F 30.05 in WSW 2 mph 2 mph 77% 0.00 in 315 W/m2
08:50 66.6 °F 59.2 °F 30.05 in WSW 3 mph 3 mph 77% 0.00 in 329 W/m2
08:55 66.8 °F 59.7 °F 30.05 in West 3 mph 5 mph 78% 0.00 in 345 W/m2
09:00 67.1 °F 59.6 °F 30.06 in WSW 3 mph 3 mph 77% 0.00 in 357 W/m2
09:05 67.3 °F 59.5 °F 30.05 in WNW 2 mph 3 mph 76% 0.00 in 369 W/m2
09:10 67.4 °F 59.9 °F 30.06 in WSW 2 mph 3 mph 77% 0.00 in 383 W/m2
09:15 67.7 °F 60.2 °F 30.06 in WNW 3 mph 6 mph 77% 0.00 in 397 W/m2
09:20 67.9 °F 60.4 °F 30.06 in SSW 3 mph 3 mph 77% 0.00 in 413 W/m2
09:25 68 °F 60.2 °F 30.06 in WNW 3 mph 3 mph 76% 0.00 in 425 W/m2
09:30 68.1 °F 59.9 °F 30.06 in NE 3 mph 3 mph 75% 0.00 in 438 W/m2
09:35 68.2 °F 60.3 °F 30.06 in West 3 mph 5 mph 76% 0.00 in 450 W/m2
09:40 68.3 °F 60.1 °F 30.06 in WSW 3 mph 3 mph 75% 0.00 in 464 W/m2
09:45 68.6 °F 60.7 °F 30.06 in SSE 3 mph 3 mph 76% 0.00 in 478 W/m2
09:50 68.6 °F 60.4 °F 30.06 in West 3 mph 4 mph 75% 0.00 in 490 W/m2
09:55 68.8 °F 60.6 °F 30.06 in SSW 3 mph 4 mph 75% 0.00 in 503 W/m2
10:00 68.9 °F 61.4 °F 30.06 in SSW 2 mph 7 mph 77% 0.00 in 517 W/m2
10:05 68.9 °F 60.6 °F 30.06 in WSW 3 mph 7 mph 75% 0.00 in 529 W/m2
10:10 68.9 °F 61 °F 30.06 in South 3 mph 3 mph 76% 0.00 in 543 W/m2
10:15 68.9 °F 60.3 °F 30.06 in SSW 3 mph 3 mph 74% 0.00 in 555 W/m2
10:20 69.1 °F 61.2 °F 30.06 in West 3 mph 3 mph 76% 0.00 in 566 W/m2
10:25 69.1 °F 61.2 °F 30.06 in South 3 mph 3 mph 76% 0.00 in 580 W/m2
10:30 69.2 °F 61.3 °F 30.06 in West 3 mph 5 mph 76% 0.00 in 591 W/m2
10:35 69.2 °F 60.6 °F 30.06 in SSE 3 mph 5 mph 74% 0.00 in 603 W/m2
10:40 69.3 °F 60.7 °F 30.06 in SW 3 mph 3 mph 74% 0.00 in 615 W/m2
10:45 69.5 °F 61.2 °F 30.06 in SSE 3 mph 3 mph 75% 0.00 in 626 W/m2
10:50 69.5 °F 60.5 °F 30.05 in NW 3 mph 5 mph 73% 0.00 in 636 W/m2
10:55 69.6 °F 60.9 °F 30.05 in South 3 mph 5 mph 74% 0.00 in 647 W/m2
11:00 69.7 °F 61 °F 30.05 in WSW 3 mph 3 mph 74% 0.00 in 656 W/m2
11:05 69.7 °F 61 °F 30.05 in WSW 3 mph 6 mph 74% 0.00 in 668 W/m2
11:10 69.8 °F 61.1 °F 30.05 in SSW 3 mph 3 mph 74% 0.00 in 677 W/m2
11:15 69.9 °F 61.6 °F 30.05 in West 3 mph 3 mph 75% 0.00 in 686 W/m2
11:20 70 °F 60.9 °F 30.05 in SSW 3 mph 3 mph 73% 0.00 in 694 W/m2
11:25 69.9 °F 61.2 °F 30.05 in SSW 3 mph 3 mph 74% 0.00 in 705 W/m2
11:30 70.1 °F 61.4 °F 30.05 in SW 3 mph 3 mph 74% 0.00 in 715 W/m2
11:35 70.3 °F 61.2 °F 30.05 in SSW 3 mph 5 mph 73% 0.00 in 726 W/m2
11:40 70.4 °F 61.3 °F 30.05 in SSW 3 mph 3 mph 73% 0.00 in 731 W/m2
11:45 70.5 °F 61.4 °F 30.05 in SW 3 mph 3 mph 73% 0.00 in 738 W/m2
11:50 70.7 °F 61.2 °F 30.05 in SW 4 mph 8 mph 72% 0.00 in 745 W/m2
11:55 70.8 °F 61.3 °F 30.05 in SSW 4 mph 8 mph 72% 0.00 in 754 W/m2
12:00 70.9 °F 61.4 °F 30.05 in SSW 3 mph 3 mph 72% 0.00 in 763 W/m2
12:05 71 °F 61.5 °F 30.05 in SSW 3 mph 3 mph 72% 0.00 in 770 W/m2
12:10 71.1 °F 61.2 °F 30.05 in SSW 3 mph 3 mph 71% 0.00 in 777 W/m2
12:15 71.2 °F 61.3 °F 30.05 in SSW 3 mph 3 mph 71% 0.00 in 784 W/m2
12:20 71.3 °F 61.4 °F 30.04 in SSW 3 mph 3 mph 71% 0.00 in 789 W/m2
12:25 71.6 °F 60.9 °F 30.04 in SSW 3 mph 3 mph 69% 0.00 in 796 W/m2
12:30 71.6 °F 61.3 °F 30.04 in SSW 3 mph 5 mph 70% 0.00 in 803 W/m2
12:35 71.9 °F 60.8 °F 30.04 in SW 3 mph 5 mph 68% 0.00 in 807 W/m2
12:40 71.8 °F 61.9 °F 30.04 in SSW 3 mph 3 mph 71% 0.00 in 812 W/m2
12:45 72.1 °F 61.8 °F 30.04 in South 3 mph 4 mph 70% 0.00 in 817 W/m2
12:50 72.2 °F 61.5 °F 30.04 in SW 3 mph 6 mph 69% 0.00 in 821 W/m2
12:55 72.1 °F 61.8 °F 30.04 in WNW 3 mph 6 mph 70% 0.00 in 824 W/m2
13:00 72.3 °F 60.7 °F 30.04 in South 3 mph 3 mph 67% 0.00 in 830 W/m2
13:05 72.2 °F 62.7 °F 30.04 in West 3 mph 3 mph 72% 0.00 in 830 W/m2
13:10 72.3 °F 61.6 °F 30.04 in SW 3 mph 3 mph 69% 0.00 in 831 W/m2
13:15 72.2 °F 60.6 °F 30.03 in East 3 mph 3 mph 67% 0.00 in 837 W/m2
13:20 72.6 °F 61.8 °F 30.03 in SW 3 mph 4 mph 69% 0.00 in 840 W/m2
13:25 73 °F 61.8 °F 30.03 in SSW 3 mph 4 mph 68% 0.00 in 840 W/m2
13:30 72.7 °F 61.1 °F 30.03 in East 2 mph 2 mph 67% 0.00 in 840 W/m2
13:35 72.6 °F 61.4 °F 30.03 in SSW 2 mph 3 mph 68% 0.00 in 844 W/m2
13:40 73.1 °F 61.9 °F 30.03 in SSW 3 mph 3 mph 68% 0.00 in 846 W/m2
13:45 72.8 °F 61.2 °F 30.02 in South 3 mph 3 mph 67% 0.00 in 847 W/m2
13:50 72.8 °F 61.2 °F 30.02 in SSW 2 mph 2 mph 67% 0.00 in 846 W/m2
13:55 73.4 °F 62.2 °F 30.02 in South 2 mph 4 mph 68% 0.00 in 844 W/m2
14:00 73.5 °F 61.9 °F 30.02 in West 3 mph 4 mph 67% 0.00 in 847 W/m2
14:05 73.6 °F 61.5 °F 30.02 in SW 3 mph 4 mph 66% 0.00 in 846 W/m2
14:10 73.5 °F 61.4 °F 30.02 in ESE 3 mph 3 mph 66% 0.00 in 844 W/m2
14:15 73.5 °F 61.9 °F 30.02 in WSW 3 mph 3 mph 67% 0.00 in 842 W/m2
14:20 73.5 °F 62.3 °F 30.01 in South 3 mph 3 mph 68% 0.00 in 840 W/m2
14:25 73.8 °F 61.7 °F 30.01 in SSW 2 mph 3 mph 66% 0.00 in 838 W/m2
14:30 74.1 °F 61.6 °F 30.01 in SSW 3 mph 3 mph 65% 0.00 in 833 W/m2
14:35 74.3 °F 62.2 °F 30.01 in SSW 3 mph 3 mph 66% 0.00 in 830 W/m2
14:40 74.3 °F 62.6 °F 30.01 in NE 2 mph 2 mph 67% 0.00 in 824 W/m2
14:45 74.2 °F 62.5 °F 30.01 in SSW 3 mph 3 mph 67% 0.00 in 821 W/m2
14:50 74.1 °F 61.6 °F 30.01 in SW 2 mph 2 mph 65% 0.00 in 817 W/m2
14:55 74.3 °F 61.3 °F 30.01 in SSW 2 mph 3 mph 64% 0.00 in 812 W/m2
15:00 74.6 °F 60.7 °F 30.01 in South 2 mph 3 mph 62% 0.00 in 807 W/m2
15:05 74.6 °F 62.1 °F 30.00 in NNW 2 mph 3 mph 65% 0.00 in 802 W/m2
15:10 75.3 °F 61.8 °F 30.00 in SE 1 mph 2 mph 63% 0.00 in 798 W/m2
15:15 75.1 °F 62.1 °F 30.00 in NNW 1 mph 2 mph 64% 0.00 in 793 W/m2
15:20 75.1 °F 61.2 °F 30.00 in NW 1 mph 1 mph 62% 0.00 in 784 W/m2
15:25 75.6 °F 62.6 °F 30.00 in NNE 1 mph 2 mph 64% 0.00 in 779 W/m2
15:30 75.2 °F 61.7 °F 30.00 in SE 1 mph 3 mph 63% 0.00 in 770 W/m2
15:35 75.8 °F 62.3 °F 30.00 in NNE 1 mph 3 mph 63% 0.00 in 763 W/m2
15:40 75.7 °F 63.5 °F 30.00 in NNE 1 mph 2 mph 66% 0.00 in 754 W/m2
15:45 75.8 °F 62.8 °F 29.99 in NNE 1 mph 3 mph 64% 0.00 in 747 W/m2
15:50 75.8 °F 63.2 °F 29.99 in NNW 2 mph 2 mph 65% 0.00 in 740 W/m2
15:55 75.9 °F 64.2 °F 29.99 in South 2 mph 2 mph 67% 0.00 in 731 W/m2
16:00 76 °F 63.8 °F 29.99 in NNE 2 mph 3 mph 66% 0.00 in 722 W/m2
16:05 75.9 °F 63.3 °F 29.99 in NNE 2 mph 3 mph 65% 0.00 in 715 W/m2
16:10 76.1 °F 63.5 °F 29.99 in ENE 2 mph 2 mph 65% 0.00 in 705 W/m2
16:15 76.2 °F 64 °F 29.99 in ENE 2 mph 2 mph 66% 0.00 in 696 W/m2
16:20 76.4 °F 63.8 °F 29.99 in NNW 2 mph 3 mph 65% 0.00 in 687 W/m2
16:25 76.4 °F 63.8 °F 29.99 in NNE 2 mph 3 mph 65% 0.00 in 675 W/m2
16:30 76.6 °F 63.5 °F 29.99 in NNW 1 mph 1 mph 64% 0.00 in 664 W/m2
16:35 76.7 °F 62.7 °F 29.99 in NNE 2 mph 2 mph 62% 0.00 in 656 W/m2
16:40 76.9 °F 63.3 °F 29.99 in NNW 2 mph 2 mph 63% 0.00 in 643 W/m2
16:45 77.1 °F 64 °F 29.99 in NE 1 mph 2 mph 64% 0.00 in 631 W/m2
16:50 77.2 °F 65 °F 29.99 in East 1 mph 1 mph 66% 0.00 in 621 W/m2
16:55 77.4 °F 64.7 °F 29.99 in SSW 1 mph 2 mph 65% 0.00 in 610 W/m2
17:00 77.4 °F 64.3 °F 29.99 in North 1 mph 1 mph 64% 0.00 in 598 W/m2
17:05 77.4 °F 63.8 °F 29.98 in NE 1 mph 1 mph 63% 0.00 in 587 W/m2
17:10 77.4 °F 64.3 °F 29.98 in SE 1 mph 2 mph 64% 0.00 in 575 W/m2
17:15 77.4 °F 64.7 °F 29.98 in NNE 1 mph 2 mph 65% 0.00 in 563 W/m2
17:20 77.4 °F 64.3 °F 29.98 in North 1 mph 2 mph 64% 0.00 in 550 W/m2
17:25 77.2 °F 63.6 °F 29.98 in North 1 mph 2 mph 63% 0.00 in 540 W/m2
17:30 77.2 °F 63.6 °F 29.99 in NNW 1 mph 1 mph 63% 0.00 in 527 W/m2
17:35 77.1 °F 64 °F 29.99 in WSW 1 mph 1 mph 64% 0.00 in 519 W/m2
17:40 77.1 °F 63.5 °F 29.99 in SE 1 mph 1 mph 63% 0.00 in 508 W/m2
17:45 76.9 °F 62.9 °F 29.99 in South 1 mph 1 mph 62% 0.00 in 499 W/m2
17:50 77 °F 61.6 °F 29.99 in South 2 mph 2 mph 59% 0.00 in 468 W/m2
17:55 77.1 °F 62.1 °F 29.99 in South 2 mph 2 mph 60% 0.00 in 434 W/m2
18:00 77.1 °F 61.7 °F 29.99 in SE 2 mph 2 mph 59% 0.00 in 343 W/m2
18:05 77 °F 61.1 °F 29.99 in SSW 1 mph 3 mph 58% 0.00 in 172 W/m2
18:10 77 °F 61.6 °F 29.99 in SSW 1 mph 2 mph 59% 0.00 in 123 W/m2
18:15 76.8 °F 62.3 °F 30.00 in SE 1 mph 2 mph 61% 0.00 in 97 W/m2
18:20 76.7 °F 61.8 °F 30.00 in East 1 mph 1 mph 60% 0.00 in 93 W/m2
18:25 76.7 °F 62.2 °F 30.00 in NE 1 mph 1 mph 61% 0.00 in 86 W/m2
18:30 76.6 °F 63.1 °F 30.00 in WSW 1 mph 2 mph 63% 0.00 in 81 W/m2
18:35 76.6 °F 63.1 °F 30.00 in SW 2 mph 2 mph 63% 0.00 in 72 W/m2
18:40 76.6 °F 64 °F 30.00 in SSW 2 mph 3 mph 65% 0.00 in 62 W/m2
18:45 76.5 °F 64.3 °F 30.00 in WSW 2 mph 3 mph 66% 0.00 in 51 W/m2
18:50 76.3 °F 63.2 °F 30.01 in SSW 2 mph 4 mph 64% 0.00 in 40 W/m2
18:55 75.9 °F 62.4 °F 30.00 in West 4 mph 13 mph 63% 0.00 in 46 W/m2
19:00 75.2 °F 61.3 °F 30.00 in NW 6 mph 6 mph 62% 0.00 in 42 W/m2
19:05 74.3 °F 61.3 °F 30.00 in NW 6 mph 6 mph 64% 0.00 in 39 W/m2
19:10 73.8 °F 61.3 °F 30.00 in WNW 5 mph 5 mph 65% 0.00 in 35 W/m2
19:15 73.3 °F 61.7 °F 30.00 in NNW 4 mph 5 mph 67% 0.00 in 33 W/m2
19:20 72.8 °F 60.8 °F 30.00 in NNW 4 mph 4 mph 66% 0.00 in 32 W/m2
19:25 72.4 °F 61.2 °F 30.00 in NW 4 mph 9 mph 68% 0.00 in 30 W/m2
19:30 71.9 °F 61.6 °F 30.00 in WSW 4 mph 7 mph 70% 0.00 in 28 W/m2
19:35 71.5 °F 61.2 °F 30.00 in West 4 mph 7 mph 70% 0.00 in 26 W/m2
19:40 71.3 °F 61.4 °F 30.00 in West 3 mph 3 mph 71% 0.00 in 25 W/m2
19:45 71 °F 61.5 °F 30.00 in WNW 3 mph 3 mph 72% 0.00 in 25 W/m2
19:50 70.8 °F 61.7 °F 29.99 in West 3 mph 3 mph 73% 0.00 in 23 W/m2
19:55 70.7 °F 62 °F 29.99 in North 3 mph 3 mph 74% 0.00 in 23 W/m2
20:00 70.5 °F 61.8 °F 29.99 in West 3 mph 3 mph 74% 0.00 in 25 W/m2
20:05 70.4 °F 61.3 °F 29.99 in West 3 mph 4 mph 73% 0.00 in 25 W/m2
20:10 70.3 °F 61.2 °F 29.99 in NW 3 mph 4 mph 73% 0.00 in 25 W/m2
20:15 70.3 °F 61.6 °F 29.99 in NW 3 mph 4 mph 74% 0.00 in 23 W/m2
20:20 70.2 °F 61.5 °F 30.00 in NNW 2 mph 2 mph 74% 0.00 in 23 W/m2
20:25 70.2 °F 61.5 °F 30.00 in North 2 mph 2 mph 74% 0.00 in 21 W/m2
20:30 70.2 °F 61.5 °F 30.00 in NNW 2 mph 4 mph 74% 0.00 in 18 W/m2
20:35 70.2 °F 61.1 °F 30.00 in NW 2 mph 4 mph 73% 0.00 in 16 W/m2
20:40 70.2 °F 61.1 °F 30.00 in NW 2 mph 4 mph 73% 0.00 in 11 W/m2
20:45 70.2 °F 61.1 °F 29.99 in NNW 2 mph 4 mph 73% 0.00 in 7 W/m2
20:50 70.3 °F 60.8 °F 29.99 in NW 2 mph 3 mph 72% 0.00 in 0 W/m2
20:55 70.3 °F 60.8 °F 29.99 in NNW 2 mph 3 mph 72% 0.00 in 0 W/m2
21:00 70.4 °F 61.3 °F 29.99 in NW 2 mph 2 mph 73% 0.00 in 0 W/m2
21:05 70.5 °F 61.4 °F 29.99 in North 2 mph 2 mph 73% 0.00 in 0 W/m2
21:10 70.6 °F 61.9 °F 29.99 in NW 1 mph 1 mph 74% 0.00 in 0 W/m2
21:15 70.5 °F 61.8 °F 30.00 in NW 1 mph 1 mph 74% 0.00 in 0 W/m2
21:20 70.5 °F 61.4 °F 30.00 in NW 1 mph 1 mph 73% 0.00 in 0 W/m2
21:25 70.5 °F 61.4 °F 30.01 in WSW 1 mph 1 mph 73% 0.00 in 0 W/m2
21:30 70.6 °F 61.9 °F 30.01 in North 1 mph 2 mph 74% 0.00 in 0 W/m2
21:35 70.5 °F 61.8 °F 30.01 in NE 1 mph 2 mph 74% 0.00 in 0 W/m2
21:40 70.5 °F 61.8 °F 30.01 in Calm     74% 0.00 in 0 W/m2
21:45 70.5 °F 61.8 °F 30.01 in East 1 mph 1 mph 74% 0.00 in 0 W/m2
21:50 70.5 °F 62.9 °F 30.02 in Calm     77% 0.00 in 0 W/m2
21:55 70.4 °F 62.8 °F 30.02 in Calm     77% 0.00 in 0 W/m2
22:00 70.3 °F 62.7 °F 30.02 in Calm     77% 0.00 in 0 W/m2
22:05 70.3 °F 62.7 °F 30.02 in Calm     77% 0.00 in 0 W/m2
22:10 70.2 °F 62.3 °F 30.03 in Calm     76% 0.00 in 0 W/m2
22:15 70.2 °F 64.1 °F 30.03 in Calm   1 mph 81% 0.00 in 0 W/m2
22:20 70.3 °F 64.5 °F 30.03 in WNW 1 mph 2 mph 82% 0.00 in 0 W/m2
22:25 70.4 °F 64.6 °F 30.03 in SE 1 mph 2 mph 82% 0.00 in 0 W/m2
22:30 70.4 °F 65 °F 30.03 in NNE 1 mph 2 mph 83% 0.00 in 0 W/m2
22:35 70.3 °F 64.9 °F 30.03 in North 1 mph 2 mph 83% 0.00 in 0 W/m2
22:40 70.1 °F 64.3 °F 30.03 in NNE 1 mph 1 mph 82% 0.00 in 0 W/m2
22:45 70 °F 64.2 °F 30.03 in SE 1 mph 1 mph 82% 0.00 in 0 W/m2
22:50 69.8 °F 64.1 °F 30.03 in East 1 mph 1 mph 82% 0.00 in 0 W/m2
22:55 69.8 °F 64.1 °F 30.03 in Calm   1 mph 82% 0.00 in 0 W/m2
23:00 69.8 °F 64.1 °F 30.02 in Calm     82% 0.00 in 0 W/m2
23:05 69.9 °F 64.2 °F 30.02 in Calm     82% 0.00 in 0 W/m2
23:10 69.9 °F 64.5 °F 30.02 in Calm     83% 0.00 in 0 W/m2
23:15 69.9 °F 64.2 °F 30.02 in Calm     82% 0.00 in 0 W/m2
23:20 69.9 °F 64.2 °F 30.02 in Calm     82% 0.00 in 0 W/m2
23:25 69.8 °F 63.7 °F 30.02 in Calm     81% 0.00 in 0 W/m2
23:30 69.7 °F 63.6 °F 30.02 in Calm     81% 0.00 in 0 W/m2
23:35 69.7 °F 64 °F 30.02 in Calm     82% 0.00 in 0 W/m2
23:40 69.6 °F 63.9 °F 30.02 in Calm     82% 0.00 in 0 W/m2
23:45 69.6 °F 64.2 °F 30.02 in Calm     83% 0.00 in 0 W/m2
23:50 69.5 °F 64.1 °F 30.02 in Calm   2 mph 83% 0.00 in 0 W/m2
23:55 69.5 °F 64.1 °F 30.02 in West 1 mph 2 mph 83% 0.00 in 0 W/m2
Sand Point, Michigan, USA
Compliments of Weather Underground - 2 mb